Terminal Aerodrome Forecast
Issued by NWS

Home | Current Version | Previous Version | Graphics & Text | Print | Product List | Glossary On
Versions: 1 2 3 4 5 6 7 8 9 10 11 12 13 14 15 16 17 18 19 20 21 22 23 24 25 26 27 28
178
FTUS45 KGGW 201135
TAFGDV
TAF
KGDV 201135Z 2012/2112 04004KT P6SM OVC070
     FM201300 VRB05KT P6SM OVC040
     FM201800 33009KT P6SM BKN060
     FM201900 33010KT P6SM SCT100
     FM210400 02009KT P6SM BKN140
     FM210700 08009KT P6SM BKN080=

USA.gov is the U.S. government's official web portal to all federal, state and local government web resources and services.